createdAt,value
2019-05-02T00:00:15.023Z,24.30
2019-05-02T00:01:15.388Z,27.90
2019-05-02T00:02:15.303Z,25.00
2019-05-02T00:03:15.551Z,22.70
2019-05-02T00:04:19.999Z,25.00
2019-05-02T00:05:16.438Z,25.40
2019-05-02T00:06:16.219Z,23.50
2019-05-02T00:07:20.202Z,30.60
2019-05-02T00:08:16.958Z,22.70
2019-05-02T00:09:17.352Z,28.20
2019-05-02T00:10:19.925Z,29.50
2019-05-02T00:11:17.940Z,26.70
2019-05-02T00:12:18.354Z,24.90
2019-05-02T00:13:18.909Z,23.80
2019-05-02T00:14:18.989Z,25.30
2019-05-02T00:15:18.729Z,24.20
2019-05-02T00:16:18.990Z,25.00
2019-05-02T00:17:20.252Z,26.20
2019-05-02T00:18:19.725Z,25.40
2019-05-02T00:19:19.987Z,26.40
2019-05-02T00:20:21.293Z,24.20
2019-05-02T00:21:20.706Z,27.80
2019-05-02T00:22:20.994Z,27.70
2019-05-02T00:23:22.933Z,26.20
2019-05-02T00:24:21.245Z,23.70
2019-05-02T00:25:21.626Z,27.40
2019-05-02T00:26:24.530Z,27.30
2019-05-02T00:27:22.177Z,29.30
2019-05-02T00:28:22.434Z,31.50
2019-05-02T00:29:23.696Z,25.20
2019-05-02T00:30:22.948Z,24.70
2019-05-02T00:31:23.205Z,29.80
2019-05-02T00:32:23.734Z,27.60
2019-05-02T00:33:23.928Z,30.30
2019-05-02T00:34:24.378Z,25.10
2019-05-02T00:35:24.702Z,25.60
2019-05-02T00:36:25.193Z,23.60
2019-05-02T00:37:26.667Z,27.80
2019-05-02T00:38:26.077Z,28.10
2019-05-02T00:39:25.889Z,28.10
2019-05-02T00:40:27.736Z,28.80
2019-05-02T00:41:26.446Z,26.40
2019-05-02T00:42:26.813Z,26.70
2019-05-02T00:43:28.956Z,27.20
2019-05-02T00:44:27.392Z,29.20
2019-05-02T00:45:27.974Z,30.80
2019-05-02T00:46:30.318Z,29.20
2019-05-02T00:47:27.778Z,31.40
2019-05-02T00:48:28.320Z,27.60
2019-05-02T00:49:30.835Z,30.60
2019-05-02T00:50:28.686Z,33.20
2019-05-02T00:51:29.009Z,28.90
2019-05-02T00:52:32.865Z,31.80
2019-05-02T00:53:29.976Z,31.60
2019-05-02T00:54:30.325Z,32.50
2019-05-02T00:55:33.860Z,28.50
2019-05-02T00:56:31.042Z,28.90
2019-05-02T00:57:31.331Z,27.80
2019-05-02T00:58:32.166Z,32.70
2019-05-02T00:59:31.810Z,31.20
2019-05-02T01:00:32.062Z,34.30
2019-05-02T01:01:32.227Z,33.30
2019-05-02T01:02:35.968Z,34.40
2019-05-02T01:03:32.724Z,34.30
2019-05-02T01:04:33.168Z,33.50
2019-05-02T01:05:38.034Z,38.90
2019-05-02T01:06:33.928Z,37.20
2019-05-02T01:07:34.193Z,37.20
2019-05-02T01:08:35.608Z,39.20
2019-05-02T01:09:34.922Z,35.90
2019-05-02T01:10:35.281Z,41.20
2019-05-02T01:11:35.550Z,36.90
2019-05-02T01:12:39.829Z,34.80
2019-05-02T01:13:36.094Z,36.90
2019-05-02T01:14:36.565Z,40.20
2019-05-02T01:15:39.123Z,35.80
2019-05-02T01:17:37.074Z,35.40
2019-05-02T01:18:41.209Z,36.80
2019-05-02T01:19:37.713Z,37.70
2019-05-02T01:20:37.542Z,37.10
2019-05-02T01:21:38.937Z,36.10
2019-05-02T01:22:38.039Z,36.00
2019-05-02T01:23:38.057Z,37.70
2019-05-02T01:24:39.814Z,37.60
2019-05-02T01:25:38.948Z,35.60
2019-05-02T01:26:39.306Z,37.70
2019-05-02T01:27:41.280Z,38.60
2019-05-02T01:28:39.870Z,37.90
2019-05-02T01:29:40.046Z,40.80
2019-05-02T01:30:42.296Z,37.50
2019-05-02T01:31:40.144Z,38.50
2019-05-02T01:32:40.355Z,37.00
2019-05-02T01:33:41.812Z,37.20
2019-05-02T01:34:40.952Z,34.60
2019-05-02T01:35:40.993Z,37.60
2019-05-02T01:36:42.711Z,34.20
2019-05-02T01:37:41.882Z,35.90
2019-05-02T01:38:42.347Z,34.10
2019-05-02T01:39:43.062Z,37.40
2019-05-02T01:40:42.780Z,35.60
2019-05-02T01:41:43.564Z,34.00
2019-05-02T01:42:44.488Z,36.30
2019-05-02T01:43:43.915Z,32.20
2019-05-02T01:44:43.665Z,32.00
2019-05-02T01:45:46.577Z,32.80
2019-05-02T01:46:44.330Z,33.90
2019-05-02T01:47:44.945Z,31.80
2019-05-02T01:48:45.599Z,32.20
2019-05-02T01:49:45.794Z,30.30
2019-05-02T01:50:46.108Z,34.60
2019-05-02T01:51:47.669Z,32.20
2019-05-02T01:52:46.099Z,35.20
2019-05-02T01:53:46.320Z,34.40
2019-05-02T01:54:47.594Z,34.30
2019-05-02T01:55:47.145Z,37.80
2019-05-02T01:56:47.473Z,33.30
2019-05-02T01:57:47.971Z,37.20
2019-05-02T01:58:48.275Z,32.20
2019-05-02T01:59:48.444Z,35.30
2019-05-02T02:00:48.942Z,34.70
2019-05-02T02:01:53.155Z,35.20
2019-05-02T02:02:49.810Z,35.40
2019-05-02T02:03:50.052Z,35.80
2019-05-02T02:04:52.224Z,39.00
2019-05-02T02:05:50.748Z,34.40
2019-05-02T02:06:50.862Z,35.10
2019-05-02T02:07:55.554Z,34.70
2019-05-02T02:08:51.439Z,38.30
2019-05-02T02:09:51.762Z,39.30
2019-05-02T02:10:56.462Z,37.70
2019-05-02T02:11:52.460Z,36.60
2019-05-02T02:13:03.623Z,37.00
2019-05-02T02:13:53.343Z,36.00
2019-05-02T02:14:55.444Z,37.70
2019-05-02T02:15:54.147Z,34.40
2019-05-02T02:16:54.752Z,38.10
2019-05-02T02:17:54.968Z,37.70
2019-05-02T02:18:58.992Z,35.10
2019-05-02T02:19:55.468Z,38.10
2019-05-02T02:20:55.485Z,38.30
2019-05-02T02:21:57.586Z,43.20
2019-05-02T02:22:55.797Z,42.90
2019-05-02T02:23:56.034Z,42.70
2019-05-02T02:25:00.962Z,40.90
2019-05-02T02:25:56.526Z,42.20
2019-05-02T02:26:56.947Z,39.60
2019-05-02T02:27:59.651Z,39.90
2019-05-02T02:28:57.891Z,38.50
2019-05-02T02:29:57.895Z,43.00
2019-05-02T02:31:04.829Z,37.00
2019-05-02T02:31:58.227Z,39.30
2019-05-02T02:33:00.857Z,41.50
2019-05-02T02:33:58.942Z,35.30
2019-05-02T02:35:03.387Z,39.60
2019-05-02T02:35:59.406Z,35.20
2019-05-02T02:36:59.172Z,35.30
2019-05-02T02:37:59.671Z,39.80
2019-05-02T02:39:00.309Z,38.10
2019-05-02T02:40:00.140Z,40.50
2019-05-02T02:41:00.602Z,39.80
2019-05-02T02:42:01.068Z,37.00
2019-05-02T02:43:13.055Z,40.60
2019-05-02T02:44:02.894Z,36.50
2019-05-02T02:45:01.914Z,39.40
2019-05-02T02:46:01.932Z,38.40
2019-05-02T02:47:01.795Z,37.50
2019-05-02T02:48:02.692Z,40.60
2019-05-02T02:49:02.593Z,35.80
2019-05-02T02:50:05.146Z,39.70
2019-05-02T02:51:02.787Z,38.00
2019-05-02T02:53:02.849Z,39.60
2019-05-02T02:54:05.463Z,33.90
2019-05-02T02:55:03.050Z,36.80
2019-05-02T02:56:03.828Z,36.80
2019-05-02T02:57:03.323Z,39.80
2019-05-02T02:58:04.908Z,38.50
2019-05-02T02:59:03.626Z,40.60
2019-05-02T03:00:07.899Z,39.30
2019-05-02T03:01:04.099Z,37.20
2019-05-02T03:02:09.946Z,34.30
2019-05-02T03:03:04.209Z,32.60
2019-05-02T03:04:09.441Z,34.00
2019-05-02T03:05:04.215Z,36.90
2019-05-02T03:06:07.598Z,39.30
2019-05-02T03:07:04.903Z,38.20
2019-05-02T03:08:06.929Z,39.20
2019-05-02T03:09:05.602Z,34.00
2019-05-02T03:10:06.747Z,33.80
2019-05-02T03:11:05.963Z,35.80
2019-05-02T03:12:06.228Z,38.80
2019-05-02T03:13:06.304Z,40.70
2019-05-02T03:14:09.278Z,36.50
2019-05-02T03:15:06.602Z,37.90
2019-05-02T03:16:09.133Z,37.70
2019-05-02T03:17:07.159Z,32.60
2019-05-02T03:18:07.738Z,35.30
2019-05-02T03:19:07.936Z,37.70
2019-05-02T03:20:08.068Z,41.20
2019-05-02T03:21:13.253Z,39.90
2019-05-02T03:22:08.728Z,46.60
2019-05-02T03:23:15.281Z,39.90
2019-05-02T03:24:09.121Z,41.30
2019-05-02T03:25:09.693Z,45.40
2019-05-02T03:26:14.770Z,45.30
2019-05-02T03:27:09.963Z,44.30
2019-05-02T03:28:17.718Z,45.30
2019-05-02T03:29:10.694Z,47.40
2019-05-02T03:30:29.734Z,47.30
2019-05-02T03:31:22.909Z,50.10
2019-05-02T03:32:16.820Z,54.90
2019-05-02T03:33:12.478Z,46.20
2019-05-02T03:34:11.950Z,47.70
2019-05-02T03:35:18.359Z,50.90
2019-05-02T03:36:26.868Z,49.20
2019-05-02T03:37:13.987Z,47.40
2019-05-02T03:38:13.063Z,51.00
2019-05-02T03:39:15.427Z,51.10
2019-05-02T03:40:13.639Z,54.60
2019-05-02T03:41:20.746Z,47.80
2019-05-02T03:42:14.397Z,53.90
2019-05-02T03:43:18.987Z,51.00
2019-05-02T03:44:25.163Z,49.10
2019-05-02T03:45:16.081Z,50.00
2019-05-02T03:46:20.537Z,49.90
2019-05-02T03:47:16.041Z,53.60
2019-05-02T03:48:18.157Z,49.50
2019-05-02T03:49:16.766Z,49.20
2019-05-02T03:50:16.966Z,51.50
2019-05-02T03:51:21.699Z,53.10
2019-05-02T03:52:17.349Z,49.60
2019-05-02T03:53:25.071Z,55.30
2019-05-02T03:54:19.993Z,55.90
2019-05-02T03:55:23.749Z,54.40
2019-05-02T03:56:18.627Z,53.00
2019-05-02T03:57:24.689Z,55.60
2019-05-02T03:58:19.070Z,51.00
2019-05-02T03:59:19.523Z,54.10
2019-05-02T04:00:21.915Z,51.90
2019-05-02T04:01:20.497Z,54.80
2019-05-02T04:02:21.815Z,55.50
2019-05-02T04:03:20.810Z,56.80
2019-05-02T04:04:22.708Z,57.00
2019-05-02T04:05:21.473Z,53.50
2019-05-02T04:06:23.726Z,50.50
2019-05-02T04:07:21.755Z,58.00
2019-05-02T04:08:22.735Z,57.20
2019-05-02T04:09:22.361Z,51.70
2019-05-02T04:10:22.417Z,48.50
2019-05-02T04:11:22.734Z,57.20
2019-05-02T04:12:22.828Z,59.20
2019-05-02T04:13:23.061Z,53.30
2019-05-02T04:14:36.778Z,51.40
2019-05-02T04:15:28.808Z,52.80
2019-05-02T04:16:24.112Z,50.70
2019-05-02T04:17:29.085Z,53.90
2019-05-02T04:18:24.392Z,57.20
2019-05-02T04:19:28.703Z,59.40
2019-05-02T04:20:25.253Z,51.00
2019-05-02T04:21:26.507Z,46.20
2019-05-02T04:22:25.581Z,49.00
2019-05-02T04:23:27.623Z,49.00
2019-05-02T04:24:29.097Z,54.40
2019-05-02T04:25:27.841Z,53.50
2019-05-02T04:26:26.948Z,55.00
2019-05-02T04:27:27.933Z,56.40
2019-05-02T04:28:27.582Z,48.70
2019-05-02T04:29:31.293Z,55.50
2019-05-02T04:30:28.144Z,54.80
2019-05-02T04:31:31.407Z,52.80
2019-05-02T04:32:28.178Z,58.00
2019-05-02T04:33:29.073Z,57.50
2019-05-02T04:34:29.123Z,60.40
2019-05-02T04:35:34.868Z,56.40
2019-05-02T04:36:29.358Z,62.30
2019-05-02T04:37:34.522Z,59.70
2019-05-02T04:38:39.034Z,63.20
2019-05-02T04:39:30.156Z,62.50
2019-05-02T04:40:35.149Z,62.90
2019-05-02T04:41:34.101Z,62.60
2019-05-02T04:42:31.179Z,61.80
2019-05-02T04:43:31.050Z,61.10
2019-05-02T04:44:44.170Z,58.40
2019-05-02T04:45:50.955Z,56.30
2019-05-02T04:46:32.004Z,55.40
2019-05-02T04:47:32.419Z,56.80
2019-05-02T04:48:34.638Z,52.90
2019-05-02T04:49:35.722Z,51.10
2019-05-02T04:50:33.679Z,48.40
2019-05-02T04:51:33.702Z,57.10
2019-05-02T04:52:40.781Z,53.50
2019-05-02T04:53:41.057Z,57.20
2019-05-02T04:54:34.322Z,53.80
2019-05-02T04:55:34.561Z,49.30
2019-05-02T04:56:39.721Z,46.60
2019-05-02T04:57:38.125Z,47.50
2019-05-02T04:58:39.710Z,48.30
2019-05-02T04:59:35.648Z,42.80
2019-05-02T05:00:35.610Z,43.90
2019-05-02T05:01:45.400Z,45.40
2019-05-02T05:02:39.908Z,41.40
2019-05-02T05:03:37.684Z,42.40
2019-05-02T05:04:41.899Z,46.70
2019-05-02T05:05:40.240Z,46.00
2019-05-02T05:06:38.065Z,49.80
2019-05-02T05:07:41.158Z,47.60
2019-05-02T05:08:38.790Z,46.40
2019-05-02T05:09:39.864Z,50.60
2019-05-02T05:10:41.510Z,49.80
2019-05-02T05:11:38.702Z,47.90
2019-05-02T05:12:41.757Z,49.30
2019-05-02T05:13:39.459Z,47.10
2019-05-02T05:14:43.177Z,45.50
2019-05-02T05:15:48.520Z,52.00
2019-05-02T05:16:45.381Z,46.80
2019-05-02T05:17:41.214Z,48.10
2019-05-02T05:18:43.896Z,47.30
2019-05-02T05:19:41.989Z,50.20
2019-05-02T05:20:45.985Z,52.30
2019-05-02T05:21:42.221Z,52.10
2019-05-02T05:22:44.581Z,50.50
2019-05-02T05:23:42.390Z,51.80
2019-05-02T05:24:42.762Z,50.30
2019-05-02T05:25:43.363Z,51.60
2019-05-02T05:26:43.156Z,49.60
2019-05-02T05:27:43.630Z,46.50
2019-05-02T05:28:44.531Z,46.60
2019-05-02T05:29:48.025Z,47.90
2019-05-02T05:30:46.845Z,0.00
2019-05-02T05:31:45.455Z,44.30
2019-05-02T05:32:47.850Z,49.20
2019-05-02T05:33:47.865Z,43.90
2019-05-02T05:34:47.800Z,40.10
2019-05-02T05:35:48.838Z,43.50
2019-05-02T05:36:48.182Z,44.60
2019-05-02T05:37:51.214Z,49.00
2019-05-02T05:38:47.928Z,44.70
2019-05-02T05:39:52.460Z,43.70
2019-05-02T05:40:50.218Z,44.40
2019-05-02T05:41:52.353Z,40.70
2019-05-02T05:42:48.926Z,43.80
2019-05-02T05:43:53.420Z,43.70
2019-05-02T05:44:49.261Z,47.10
2019-05-02T05:45:56.048Z,44.30
2019-05-02T05:46:49.993Z,51.00
2019-05-02T05:47:52.455Z,48.80
2019-05-02T05:48:50.826Z,42.70
2019-05-02T05:49:52.265Z,48.70
2019-05-02T05:50:51.199Z,46.00
2019-05-02T05:51:54.524Z,48.80
2019-05-02T05:52:52.042Z,49.10
2019-05-02T05:53:52.277Z,47.20
2019-05-02T05:54:52.094Z,49.60
2019-05-02T05:55:53.556Z,53.10
2019-05-02T05:56:52.896Z,52.90
2019-05-02T05:57:59.508Z,53.70
2019-05-02T05:58:53.273Z,49.80
2019-05-02T05:59:53.384Z,49.70
2019-05-02T06:00:55.689Z,53.90
2019-05-02T06:01:54.480Z,56.40
2019-05-02T06:03:01.190Z,56.40
2019-05-02T06:03:54.741Z,60.70
2019-05-02T06:04:59.995Z,57.80
2019-05-02T06:05:55.237Z,62.70
2019-05-02T06:06:59.567Z,57.90
2019-05-02T06:07:57.450Z,55.90
2019-05-02T06:08:55.808Z,62.80
2019-05-02T06:09:55.784Z,72.70
2019-05-02T06:10:56.091Z,75.20
2019-05-02T06:11:56.682Z,77.00
2019-05-02T06:12:56.780Z,69.30
2019-05-02T06:13:57.078Z,72.60
2019-05-02T06:15:01.655Z,69.50
2019-05-02T06:16:02.716Z,72.60
2019-05-02T06:16:58.003Z,78.10
2019-05-02T06:18:00.088Z,80.60
2019-05-02T06:18:58.886Z,82.20
2019-05-02T06:19:59.319Z,89.60
2019-05-02T06:21:03.363Z,84.80
2019-05-02T06:21:59.979Z,87.10
2019-05-02T06:23:01.331Z,80.40
2019-05-02T06:24:01.062Z,86.70
2019-05-02T06:25:01.149Z,89.20
2019-05-02T06:26:00.998Z,90.70
2019-05-02T06:27:01.543Z,87.20
2019-05-02T06:28:05.279Z,93.00
2019-05-02T06:29:01.805Z,89.30
2019-05-02T06:30:02.373Z,92.40
2019-05-02T06:31:07.179Z,89.80
2019-05-02T06:32:02.561Z,86.30
2019-05-02T06:33:02.621Z,87.40
2019-05-02T06:34:07.109Z,94.90
2019-05-02T06:35:02.722Z,94.70
2019-05-02T06:36:02.951Z,96.20
2019-05-02T06:37:03.027Z,92.00
2019-05-02T06:38:03.136Z,92.20
2019-05-02T06:39:03.245Z,95.80
2019-05-02T06:41:03.478Z,94.10
2019-05-02T06:42:04.277Z,91.30
2019-05-02T06:43:09.260Z,93.60
2019-05-02T06:44:04.209Z,92.50
2019-05-02T06:45:04.202Z,90.40
2019-05-02T06:46:15.365Z,90.40
2019-05-02T06:47:05.714Z,88.60
2019-05-02T06:48:05.149Z,86.80
2019-05-02T06:49:05.464Z,88.80
2019-05-02T06:50:05.722Z,91.30
2019-05-02T06:51:10.936Z,90.60
2019-05-02T06:52:06.312Z,86.60
2019-05-02T06:53:09.762Z,88.00
2019-05-02T06:54:07.127Z,88.00
2019-05-02T06:55:07.391Z,88.20
2019-05-02T06:56:12.302Z,94.00
2019-05-02T06:57:07.942Z,87.10
2019-05-02T06:58:08.281Z,90.90
2019-05-02T06:59:08.086Z,89.60
2019-05-02T07:00:08.566Z,90.80
2019-05-02T07:01:08.931Z,88.10
2019-05-02T07:02:08.906Z,86.20
2019-05-02T07:03:10.095Z,89.90
2019-05-02T07:04:09.798Z,89.90
2019-05-02T07:05:10.023Z,89.00
2019-05-02T07:06:10.494Z,93.20
2019-05-02T07:07:13.115Z,88.70
2019-05-02T07:08:13.547Z,91.40
2019-05-02T07:09:11.850Z,87.90
2019-05-02T07:10:11.577Z,82.00
2019-05-02T07:11:11.833Z,86.10
2019-05-02T07:12:14.681Z,90.30
2019-05-02T07:13:15.073Z,85.70
2019-05-02T07:14:14.006Z,85.30
2019-05-02T07:15:13.494Z,90.70
2019-05-02T07:16:29.941Z,88.50
2019-05-02T07:17:13.434Z,91.40
2019-05-02T07:18:13.488Z,86.50
2019-05-02T07:19:16.392Z,89.50
2019-05-02T07:20:13.933Z,89.20
2019-05-02T07:21:17.357Z,86.90
2019-05-02T07:22:14.017Z,87.80
2019-05-02T07:23:16.198Z,93.40
2019-05-02T07:24:14.761Z,91.80
2019-05-02T07:25:15.354Z,95.60
2019-05-02T07:26:20.874Z,97.70
2019-05-02T07:27:15.990Z,93.80
2019-05-02T07:28:16.248Z,93.40
2019-05-02T07:29:17.152Z,87.10
2019-05-02T07:30:17.289Z,89.40
2019-05-02T07:31:17.294Z,92.00
2019-05-02T07:32:19.179Z,94.50
2019-05-02T07:33:18.055Z,97.80
2019-05-02T07:34:18.349Z,97.40
2019-05-02T07:35:19.404Z,84.10
2019-05-02T07:36:19.237Z,94.70
2019-05-02T07:37:19.691Z,93.50
2019-05-02T07:38:25.073Z,90.90
2019-05-02T07:39:20.269Z,96.60
2019-05-02T07:40:20.430Z,90.80
2019-05-02T07:41:24.086Z,94.40
2019-05-02T07:42:21.196Z,91.60
2019-05-02T07:43:22.406Z,93.50
2019-05-02T07:44:21.958Z,91.40
2019-05-02T07:45:22.185Z,86.30
2019-05-02T07:46:22.624Z,89.40
2019-05-02T07:47:23.132Z,91.80
2019-05-02T07:48:23.108Z,95.90
2019-05-02T07:49:26.620Z,90.20
2019-05-02T07:50:23.775Z,88.70
2019-05-02T07:51:24.237Z,93.30
2019-05-02T07:52:24.552Z,90.30
2019-05-02T07:53:25.006Z,87.90
2019-05-02T07:54:26.790Z,90.30
2019-05-02T07:55:25.584Z,82.80
2019-05-02T07:56:26.063Z,88.30
2019-05-02T07:57:30.526Z,84.60
2019-05-02T07:58:26.794Z,88.20
2019-05-02T07:59:26.907Z,84.10
2019-05-02T08:00:27.156Z,86.10
2019-05-02T08:01:27.459Z,84.00
2019-05-02T08:02:27.988Z,82.70
2019-05-02T08:03:29.329Z,86.30
2019-05-02T08:04:28.156Z,79.50
2019-05-02T08:05:28.447Z,81.70
2019-05-02T08:06:35.335Z,85.50
2019-05-02T08:07:34.214Z,79.30
2019-05-02T08:08:31.479Z,80.20
2019-05-02T08:09:30.086Z,83.70
2019-05-02T08:10:30.291Z,81.20
2019-05-02T08:11:32.247Z,84.70
2019-05-02T08:12:30.956Z,78.60
2019-05-02T08:13:31.604Z,84.40
2019-05-02T08:14:34.473Z,79.70
2019-05-02T08:15:31.942Z,84.70
2019-05-02T08:16:32.368Z,78.90
2019-05-02T08:17:32.797Z,77.50
2019-05-02T08:18:33.284Z,77.20
2019-05-02T08:19:37.464Z,81.30
2019-05-02T08:20:33.722Z,80.80
2019-05-02T08:21:34.235Z,78.60
2019-05-02T08:22:34.323Z,78.10
2019-05-02T08:23:34.995Z,81.60
2019-05-02T08:24:37.958Z,82.80
2019-05-02T08:25:35.739Z,84.90
2019-05-02T08:26:36.122Z,80.20
2019-05-02T08:27:36.702Z,79.50
2019-05-02T08:28:36.751Z,85.60
2019-05-02T08:29:37.002Z,81.20
2019-05-02T08:30:40.540Z,78.40
2019-05-02T08:31:36.896Z,83.90
2019-05-02T08:32:37.345Z,79.40
2019-05-02T08:33:37.771Z,84.50
2019-05-02T08:34:38.170Z,82.50
2019-05-02T08:35:38.605Z,80.40
2019-05-02T08:36:38.843Z,79.30
2019-05-02T08:37:40.948Z,82.70
2019-05-02T08:38:39.739Z,75.10
2019-05-02T08:39:40.236Z,78.70
2019-05-02T08:40:42.147Z,75.80
2019-05-02T08:41:40.870Z,72.10
2019-05-02T08:42:41.235Z,72.30
2019-05-02T08:43:44.950Z,75.10
2019-05-02T08:44:50.875Z,73.90
2019-05-02T08:45:42.008Z,70.80
2019-05-02T08:46:46.120Z,68.60
2019-05-02T08:47:42.714Z,71.80
2019-05-02T08:48:43.779Z,74.70
2019-05-02T08:49:43.327Z,72.90
2019-05-02T08:50:43.801Z,76.40
2019-05-02T08:51:44.047Z,70.40
2019-05-02T08:52:44.375Z,71.60
2019-05-02T08:53:44.818Z,70.90
2019-05-02T08:54:45.050Z,73.90
2019-05-02T08:55:46.698Z,72.60
2019-05-02T08:56:45.984Z,73.20
2019-05-02T08:57:45.820Z,78.60
2019-05-02T08:58:49.811Z,70.60
2019-05-02T08:59:46.786Z,73.60
2019-05-02T09:00:47.636Z,69.00
2019-05-02T09:01:49.397Z,72.90
2019-05-02T09:02:47.705Z,70.80
2019-05-02T09:03:55.227Z,72.20
2019-05-02T09:04:58.313Z,74.70
2019-05-02T09:05:49.015Z,73.90
2019-05-02T09:06:53.236Z,72.60
2019-05-02T09:07:49.646Z,73.80
2019-05-02T09:08:51.429Z,73.90
2019-05-02T09:09:50.397Z,70.70
2019-05-02T09:10:50.640Z,68.10
2019-05-02T09:12:04.838Z,73.70
2019-05-02T09:12:52.076Z,73.40
2019-05-02T09:13:52.586Z,71.70
2019-05-02T09:14:52.152Z,71.10
2019-05-02T09:15:54.163Z,69.60
2019-05-02T09:16:52.481Z,69.80
2019-05-02T09:17:56.443Z,67.10
2019-05-02T09:18:54.205Z,67.90
2019-05-02T09:20:02.413Z,69.60
2019-05-02T09:20:56.553Z,69.60
2019-05-02T09:21:54.604Z,71.10
2019-05-02T09:22:56.051Z,76.30
2019-05-02T09:23:55.558Z,70.10
2019-05-02T09:24:55.427Z,74.10
2019-05-02T09:25:55.680Z,67.80
2019-05-02T09:26:55.959Z,66.20
2019-05-02T09:27:56.195Z,65.20
2019-05-02T09:29:01.704Z,66.80
2019-05-02T09:29:56.747Z,70.00
2019-05-02T09:30:57.259Z,63.60
2019-05-02T09:31:57.106Z,63.60
2019-05-02T09:33:02.833Z,61.70
2019-05-02T09:33:57.623Z,63.60
2019-05-02T09:35:02.360Z,66.70
2019-05-02T09:35:57.947Z,62.40
2019-05-02T09:36:58.468Z,61.30
2019-05-02T09:37:58.221Z,61.10
2019-05-02T09:38:58.696Z,59.50
2019-05-02T09:39:59.133Z,61.50
2019-05-02T09:40:59.392Z,63.10
2019-05-02T09:42:02.026Z,63.40
2019-05-02T09:43:02.756Z,62.30
2019-05-02T09:44:00.387Z,63.50
2019-05-02T09:45:02.961Z,63.90
2019-05-02T09:46:02.549Z,63.60
2019-05-02T09:47:02.347Z,63.40
2019-05-02T09:48:05.187Z,64.50
2019-05-02T09:49:02.468Z,66.00
2019-05-02T09:50:02.783Z,62.80
2019-05-02T09:51:04.607Z,64.30
2019-05-02T09:52:03.391Z,60.50
2019-05-02T09:53:02.015Z,60.80
2019-05-02T09:54:06.230Z,60.60
2019-05-02T09:55:02.816Z,59.50
2019-05-02T09:56:02.348Z,60.30
2019-05-02T09:57:02.866Z,63.90
2019-05-02T09:58:02.824Z,60.10
2019-05-02T09:59:22.756Z,59.40
2019-05-02T10:00:02.604Z,62.10
2019-05-02T10:01:03.053Z,59.00
2019-05-02T10:02:03.312Z,57.20
2019-05-02T10:03:03.270Z,0.00
2019-05-02T10:04:03.851Z,61.10
2019-05-02T10:05:03.898Z,57.20
2019-05-02T10:06:03.967Z,57.80
2019-05-02T10:07:03.998Z,56.50
2019-05-02T10:08:07.323Z,56.50
2019-05-02T10:09:04.423Z,53.90
2019-05-02T10:10:06.566Z,54.00
2019-05-02T10:11:04.835Z,51.20
2019-05-02T10:12:05.314Z,52.80
2019-05-02T10:13:05.720Z,52.20
2019-05-02T10:14:06.139Z,53.10
2019-05-02T10:15:06.397Z,50.90
2019-05-02T10:16:06.956Z,50.90
2019-05-02T10:17:07.596Z,48.00
2019-05-02T10:18:11.378Z,49.30
2019-05-02T10:19:10.815Z,52.60
2019-05-02T10:20:08.467Z,54.60
2019-05-02T10:21:12.745Z,51.60
2019-05-02T10:22:08.965Z,50.50
2019-05-02T10:23:14.096Z,48.50
2019-05-02T10:24:09.330Z,52.70
2019-05-02T10:25:11.654Z,48.70
2019-05-02T10:26:12.900Z,53.00
2019-05-02T10:27:12.507Z,45.80
2019-05-02T10:28:12.811Z,45.10
2019-05-02T10:29:12.763Z,49.80
2019-05-02T10:30:15.393Z,48.40
2019-05-02T10:31:12.679Z,47.30
2019-05-02T10:32:13.012Z,47.80
2019-05-02T10:33:12.263Z,48.00
2019-05-02T10:34:16.313Z,46.10
2019-05-02T10:35:13.007Z,46.00
2019-05-02T10:36:19.550Z,43.70
2019-05-02T10:37:13.306Z,47.80
2019-05-02T10:38:15.160Z,43.40
2019-05-02T10:39:15.864Z,47.30
2019-05-02T10:40:17.157Z,45.40
2019-05-02T10:41:13.985Z,46.50
2019-05-02T10:42:14.504Z,43.90
2019-05-02T10:43:14.275Z,43.00
2019-05-02T10:44:14.686Z,42.60
2019-05-02T10:45:16.707Z,44.60
2019-05-02T10:46:14.970Z,41.60
2019-05-02T10:47:15.177Z,43.40
2019-05-02T10:48:24.764Z,40.00
2019-05-02T10:49:16.090Z,41.20
2019-05-02T10:50:16.512Z,43.30
2019-05-02T10:51:16.313Z,42.50
2019-05-02T10:52:21.555Z,42.40
2019-05-02T10:53:17.411Z,40.70
2019-05-02T10:54:20.532Z,45.80
2019-05-02T10:55:17.534Z,40.20
2019-05-02T10:56:17.576Z,42.60
2019-05-02T10:57:17.563Z,43.60
2019-05-02T10:58:17.306Z,45.20
2019-05-02T10:59:17.714Z,44.20
2019-05-02T11:00:18.401Z,41.40
2019-05-02T11:01:18.147Z,42.60
2019-05-02T11:02:18.784Z,43.10
2019-05-02T11:03:18.582Z,42.30
2019-05-02T11:04:18.872Z,42.80
2019-05-02T11:05:22.517Z,40.60
2019-05-02T11:06:19.125Z,47.30
2019-05-02T11:07:22.643Z,43.00
2019-05-02T11:08:19.911Z,45.60
2019-05-02T11:09:24.586Z,40.50
2019-05-02T11:10:21.779Z,39.70
2019-05-02T11:11:21.905Z,43.30
2019-05-02T11:12:25.591Z,39.70
2019-05-02T11:13:21.756Z,43.80
2019-05-02T11:14:22.529Z,41.00
2019-05-02T11:15:22.096Z,40.40
2019-05-02T11:16:22.329Z,43.10
2019-05-02T11:17:22.758Z,41.10
2019-05-02T11:18:39.198Z,40.70
2019-05-02T11:19:22.974Z,43.90
2019-05-02T11:20:23.242Z,38.60
2019-05-02T11:21:23.555Z,42.90
2019-05-02T11:23:23.843Z,42.90
2019-05-02T11:24:23.882Z,41.70
2019-05-02T11:25:24.179Z,38.10
2019-05-02T11:26:25.196Z,39.40
2019-05-02T11:27:25.036Z,38.80
2019-05-02T11:28:25.705Z,39.00
2019-05-02T11:29:25.961Z,41.80
2019-05-02T11:30:26.714Z,39.80
2019-05-02T11:31:26.518Z,40.70
2019-05-02T11:32:27.057Z,41.60
2019-05-02T11:33:27.298Z,39.50
2019-05-02T11:34:27.783Z,39.00
2019-05-02T11:35:28.037Z,37.60
2019-05-02T11:36:28.555Z,38.20
2019-05-02T11:37:28.296Z,40.30
2019-05-02T11:38:29.088Z,37.50
2019-05-02T11:39:37.762Z,35.00
2019-05-02T11:40:29.077Z,36.90
2019-05-02T11:41:31.576Z,39.40
2019-05-02T11:42:29.987Z,39.80
2019-05-02T11:43:29.971Z,35.90
2019-05-02T11:44:32.451Z,36.90
2019-05-02T11:45:32.327Z,35.00
2019-05-02T11:46:32.837Z,37.20
2019-05-02T11:47:32.837Z,39.80
2019-05-02T11:48:32.004Z,40.20
2019-05-02T11:49:32.127Z,36.80
2019-05-02T11:50:35.427Z,39.80
2019-05-02T11:51:32.888Z,37.00
2019-05-02T11:52:37.215Z,39.10
2019-05-02T11:53:33.043Z,43.70
2019-05-02T11:54:33.287Z,39.00
2019-05-02T11:55:33.672Z,38.10
2019-05-02T11:56:33.898Z,32.00
2019-05-02T11:57:34.148Z,31.20
2019-05-02T11:58:34.537Z,29.70
2019-05-02T11:59:34.784Z,33.50
2019-05-02T12:00:35.213Z,35.50
2019-05-02T12:01:39.519Z,35.80
2019-05-02T12:02:35.557Z,34.90
2019-05-02T12:03:37.090Z,34.20
2019-05-02T12:04:36.460Z,34.60
2019-05-02T12:05:39.314Z,34.00
2019-05-02T12:06:37.306Z,34.70
2019-05-02T12:07:37.703Z,36.10
2019-05-02T12:08:39.366Z,33.00
2019-05-02T12:09:38.421Z,32.80
2019-05-02T12:10:38.667Z,34.90
2019-05-02T12:11:38.934Z,34.70
2019-05-02T12:12:39.459Z,35.80
2019-05-02T12:13:39.263Z,36.70
2019-05-02T12:14:39.552Z,33.90
2019-05-02T12:15:42.112Z,35.20
2019-05-02T12:16:40.149Z,36.00
2019-05-02T12:17:41.957Z,36.30
2019-05-02T12:18:41.888Z,38.10
2019-05-02T12:19:42.594Z,37.70
2019-05-02T12:20:42.543Z,37.00
2019-05-02T12:21:42.059Z,38.00
2019-05-02T12:22:42.052Z,38.50
2019-05-02T12:23:42.197Z,40.90
2019-05-02T12:24:45.269Z,39.30
2019-05-02T12:25:42.720Z,42.70
2019-05-02T12:26:42.602Z,38.00
2019-05-02T12:27:42.837Z,46.00
2019-05-02T12:28:43.132Z,42.30
2019-05-02T12:29:43.413Z,39.50
2019-05-02T12:30:43.893Z,37.00
2019-05-02T12:31:47.282Z,42.10
2019-05-02T12:32:44.428Z,37.20
2019-05-02T12:33:44.938Z,36.40
2019-05-02T12:34:44.686Z,39.30
2019-05-02T12:35:44.928Z,39.80
2019-05-02T12:36:45.171Z,36.80
2019-05-02T12:37:47.092Z,38.20
2019-05-02T12:38:46.074Z,35.90
2019-05-02T12:40:46.369Z,32.60
2019-05-02T12:41:47.194Z,30.70
2019-05-02T12:42:47.294Z,30.70
2019-05-02T12:43:47.547Z,31.50
2019-05-02T12:44:47.811Z,32.00
2019-05-02T12:45:48.208Z,32.80
2019-05-02T12:46:48.488Z,33.60
2019-05-02T12:47:48.735Z,32.10
2019-05-02T12:48:49.049Z,33.90
2019-05-02T12:49:49.373Z,36.20
2019-05-02T12:50:49.624Z,34.80
2019-05-02T12:51:49.858Z,37.10
2019-05-02T12:52:52.108Z,36.60
2019-05-02T12:54:52.476Z,39.10
2019-05-02T12:55:52.737Z,34.90
2019-05-02T12:56:52.881Z,37.40
2019-05-02T12:57:52.356Z,32.90
2019-05-02T12:58:52.997Z,33.10
2019-05-02T12:59:52.539Z,29.00
2019-05-02T13:00:53.199Z,27.80
2019-05-02T13:01:52.558Z,28.90